createdAt,value
2019-02-17T00:00:29.637Z,55.41
2019-02-17T00:01:02.832Z,54.85
2019-02-17T00:01:35.998Z,53.16
2019-02-17T00:02:07.879Z,52.04
2019-02-17T00:02:39.340Z,51.35
2019-02-17T00:03:10.724Z,51.00
2019-02-17T00:03:43.161Z,50.96
2019-02-17T00:04:14.510Z,51.06
2019-02-17T00:04:45.940Z,51.28
2019-02-17T00:05:17.441Z,51.56
2019-02-17T00:05:48.892Z,51.89
2019-02-17T00:06:20.215Z,52.26
2019-02-17T00:06:51.603Z,52.71
2019-02-17T00:07:22.993Z,53.08
2019-02-17T00:07:54.275Z,53.41
2019-02-17T00:08:25.626Z,53.84
2019-02-17T00:08:56.844Z,54.21
2019-02-17T00:09:28.175Z,54.61
2019-02-17T00:09:59.494Z,55.05
2019-02-17T00:10:30.798Z,55.37
2019-02-17T00:11:02.132Z,55.80
2019-02-17T00:11:33.369Z,56.17
2019-02-17T00:12:04.663Z,56.50
2019-02-17T00:12:36.006Z,56.88
2019-02-17T00:13:07.388Z,57.17
2019-02-17T00:13:38.657Z,57.49
2019-02-17T00:14:10.078Z,57.85
2019-02-17T00:14:41.394Z,58.13
2019-02-17T00:15:12.945Z,58.37
2019-02-17T00:15:44.344Z,58.72
2019-02-17T00:16:15.629Z,58.97
2019-02-17T00:16:46.994Z,59.27
2019-02-17T00:17:18.341Z,59.51
2019-02-17T00:17:49.675Z,60.08
2019-02-17T00:18:23.733Z,60.83
2019-02-17T00:18:55.111Z,61.05
2019-02-17T00:19:26.449Z,60.73
2019-02-17T00:19:57.764Z,60.11
2019-02-17T00:20:29.173Z,59.32
2019-02-17T00:21:00.588Z,58.51
2019-02-17T00:21:31.944Z,57.60
2019-02-17T00:22:03.211Z,56.52
2019-02-17T00:22:34.493Z,55.65
2019-02-17T00:23:05.769Z,54.76
2019-02-17T00:23:37.079Z,53.65
2019-02-17T00:24:08.475Z,52.66
2019-02-17T00:24:39.930Z,51.97
2019-02-17T00:25:11.207Z,51.67
2019-02-17T00:25:42.555Z,51.63
2019-02-17T00:26:13.861Z,51.67
2019-02-17T00:26:45.447Z,51.96
2019-02-17T00:27:16.769Z,52.27
2019-02-17T00:27:48.159Z,52.65
2019-02-17T00:28:19.471Z,53.07
2019-02-17T00:28:59.148Z,53.47
2019-02-17T00:29:24.042Z,53.81
2019-02-17T00:29:55.474Z,54.24
2019-02-17T00:30:26.748Z,54.74
2019-02-17T00:30:58.198Z,55.14
2019-02-17T00:31:29.520Z,55.50
2019-02-17T00:32:00.776Z,55.94
2019-02-17T00:32:32.201Z,56.36
2019-02-17T00:33:03.406Z,56.69
2019-02-17T00:33:34.850Z,57.12
2019-02-17T00:34:07.255Z,57.29
2019-02-17T00:34:38.658Z,57.83
2019-02-17T00:35:09.959Z,58.11
2019-02-17T00:35:41.306Z,58.39
2019-02-17T00:36:12.600Z,58.73
2019-02-17T00:36:43.914Z,59.01
2019-02-17T00:37:15.263Z,59.25
2019-02-17T00:37:46.574Z,59.77
2019-02-17T00:38:17.955Z,60.50
2019-02-17T00:38:49.287Z,60.89
2019-02-17T00:39:20.615Z,60.82
2019-02-17T00:39:51.933Z,60.36
2019-02-17T00:40:23.232Z,59.65
2019-02-17T00:40:54.490Z,58.74
2019-02-17T00:41:25.800Z,57.85
2019-02-17T00:41:57.123Z,56.80
2019-02-17T00:42:28.417Z,55.87
2019-02-17T00:42:59.832Z,54.97
2019-02-17T00:43:31.142Z,54.23
2019-02-17T00:44:02.458Z,53.00
2019-02-17T00:44:33.785Z,51.88
2019-02-17T00:45:07.465Z,51.38
2019-02-17T00:45:38.703Z,51.20
2019-02-17T00:46:10.112Z,51.18
2019-02-17T00:46:41.341Z,51.34
2019-02-17T00:47:12.985Z,51.58
2019-02-17T00:47:44.323Z,51.88
2019-02-17T00:48:15.855Z,52.18
2019-02-17T00:48:47.273Z,52.58
2019-02-17T00:49:18.619Z,52.92
2019-02-17T00:49:50.193Z,53.37
2019-02-17T00:50:21.566Z,53.74
2019-02-17T00:50:52.955Z,54.13
2019-02-17T00:51:24.388Z,54.52
2019-02-17T00:51:55.774Z,54.87
2019-02-17T00:52:27.230Z,55.30
2019-02-17T00:52:58.626Z,55.63
2019-02-17T00:53:29.883Z,55.99
2019-02-17T00:54:01.274Z,56.44
2019-02-17T00:54:32.501Z,56.71
2019-02-17T00:55:06.788Z,57.09
2019-02-17T00:55:38.136Z,57.35
2019-02-17T00:56:09.514Z,57.81
2019-02-17T00:56:40.759Z,58.10
2019-02-17T00:57:12.378Z,58.31
2019-02-17T00:57:43.681Z,58.61
2019-02-17T00:58:15.067Z,58.81
2019-02-17T00:58:46.364Z,59.07
2019-02-17T00:59:17.782Z,59.32
2019-02-17T00:59:49.155Z,59.86
2019-02-17T01:00:20.516Z,60.55
2019-02-17T01:00:51.822Z,60.92
2019-02-17T01:01:23.130Z,60.73
2019-02-17T01:01:54.638Z,60.24
2019-02-17T01:02:25.962Z,59.42
2019-02-17T01:02:57.267Z,58.44
2019-02-17T01:03:28.580Z,57.41
2019-02-17T01:04:00.121Z,56.37
2019-02-17T01:04:31.342Z,55.41
2019-02-17T01:05:04.524Z,54.53
2019-02-17T01:05:36.012Z,53.33
2019-02-17T01:06:07.608Z,52.24
2019-02-17T01:06:38.976Z,51.64
2019-02-17T01:07:10.368Z,51.25
2019-02-17T01:07:41.632Z,51.24
2019-02-17T01:08:13.173Z,51.23
2019-02-17T01:08:44.557Z,51.42
2019-02-17T01:09:15.929Z,51.68
2019-02-17T01:09:47.176Z,51.96
2019-02-17T01:10:18.554Z,52.28
2019-02-17T01:10:49.806Z,52.57
2019-02-17T01:11:21.218Z,52.87
2019-02-17T01:11:52.473Z,53.10
2019-02-17T01:12:23.863Z,53.45
2019-02-17T01:12:55.263Z,53.60
2019-02-17T01:13:26.638Z,54.11
2019-02-17T01:13:57.866Z,54.49
2019-02-17T01:14:29.170Z,54.77
2019-02-17T01:15:00.523Z,55.11
2019-02-17T01:15:31.913Z,55.42
2019-02-17T01:16:03.151Z,55.75
2019-02-17T01:16:34.546Z,56.18
2019-02-17T01:17:05.861Z,56.32
2019-02-17T01:17:37.206Z,56.55
2019-02-17T01:18:09.591Z,56.80
2019-02-17T01:18:41.036Z,57.13
2019-02-17T01:19:12.539Z,57.50
2019-02-17T01:19:43.947Z,57.68
2019-02-17T01:20:15.387Z,57.95
2019-02-17T01:20:46.810Z,58.05
2019-02-17T01:21:18.183Z,58.38
2019-02-17T01:21:49.653Z,58.56
2019-02-17T01:22:21.004Z,58.75
2019-02-17T01:22:52.392Z,59.19
2019-02-17T01:23:23.795Z,59.51
2019-02-17T01:23:55.035Z,60.02
2019-02-17T01:24:26.343Z,60.69
2019-02-17T01:24:57.561Z,60.79
2019-02-17T01:25:28.865Z,60.76
2019-02-17T01:26:00.087Z,60.08
2019-02-17T01:26:31.393Z,59.21
2019-02-17T01:27:02.706Z,58.32
2019-02-17T01:27:34.129Z,57.40
2019-02-17T01:28:05.464Z,56.19
2019-02-17T01:28:36.855Z,55.51
2019-02-17T01:29:08.183Z,54.68
2019-02-17T01:29:39.529Z,53.41
2019-02-17T01:30:13.177Z,52.37
2019-02-17T01:30:44.552Z,51.57
2019-02-17T01:31:15.930Z,51.36
2019-02-17T01:31:47.314Z,51.56
2019-02-17T01:32:18.595Z,51.62
2019-02-17T01:32:50.059Z,51.71
2019-02-17T01:33:21.509Z,51.93
2019-02-17T01:33:52.960Z,52.62
2019-02-17T01:34:24.402Z,52.79
2019-02-17T01:34:55.763Z,53.23
2019-02-17T01:35:27.119Z,53.82
2019-02-17T01:35:58.487Z,54.00
2019-02-17T01:36:29.850Z,54.46
2019-02-17T01:37:01.182Z,54.83
2019-02-17T01:37:32.530Z,55.20
2019-02-17T01:38:03.858Z,55.69
2019-02-17T01:38:35.154Z,55.81
2019-02-17T01:39:06.604Z,56.24
2019-02-17T01:39:37.916Z,56.68
2019-02-17T01:40:09.133Z,56.96
2019-02-17T01:40:40.534Z,57.35
2019-02-17T01:41:11.848Z,57.60
2019-02-17T01:41:43.202Z,57.93
2019-02-17T01:42:14.498Z,58.22
2019-02-17T01:42:45.939Z,58.47
2019-02-17T01:43:17.203Z,58.76
2019-02-17T01:43:48.677Z,59.05
2019-02-17T01:44:20.012Z,59.29
2019-02-17T01:44:51.296Z,59.70
2019-02-17T01:45:22.645Z,60.53
2019-02-17T01:45:54.053Z,60.98
2019-02-17T01:46:25.447Z,61.01
2019-02-17T01:46:56.788Z,60.53
2019-02-17T01:47:28.075Z,59.72
2019-02-17T01:47:59.516Z,58.89
2019-02-17T01:48:31.798Z,57.96
2019-02-17T01:49:03.166Z,56.79
2019-02-17T01:49:34.550Z,55.86
2019-02-17T01:50:09.010Z,54.98
2019-02-17T01:50:40.470Z,54.27
2019-02-17T01:51:11.857Z,52.91
2019-02-17T01:51:43.288Z,51.97
2019-02-17T01:52:14.630Z,51.47
2019-02-17T01:52:45.975Z,51.20
2019-02-17T01:53:17.419Z,51.26
2019-02-17T01:53:48.892Z,51.33
2019-02-17T01:54:20.241Z,51.51
2019-02-17T01:54:51.628Z,51.86
2019-02-17T01:55:22.994Z,52.28
2019-02-17T01:55:54.355Z,52.71
2019-02-17T01:56:25.623Z,53.09
2019-02-17T01:56:56.914Z,53.78
2019-02-17T01:57:28.158Z,54.41
2019-02-17T01:57:59.472Z,54.77
2019-02-17T01:58:30.751Z,55.24
2019-02-17T01:59:02.122Z,55.79
2019-02-17T01:59:33.552Z,56.40
2019-02-17T02:00:10.055Z,56.85
2019-02-17T02:00:42.562Z,57.02
2019-02-17T02:01:13.891Z,57.65
2019-02-17T02:01:45.274Z,58.07
2019-02-17T02:02:16.713Z,58.41
2019-02-17T02:02:48.127Z,58.81
2019-02-17T02:03:19.564Z,59.14
2019-02-17T02:03:50.958Z,59.43
2019-02-17T02:04:22.216Z,60.11
2019-02-17T02:04:53.563Z,61.02
2019-02-17T02:05:24.935Z,61.44
2019-02-17T02:05:56.316Z,61.16
2019-02-17T02:06:27.558Z,60.63
2019-02-17T02:06:58.989Z,59.83
2019-02-17T02:07:30.257Z,58.70
2019-02-17T02:08:01.670Z,57.72
2019-02-17T02:08:33.082Z,56.75
2019-02-17T02:09:07.810Z,55.75
2019-02-17T02:09:39.028Z,54.90
2019-02-17T02:10:10.381Z,53.70
2019-02-17T02:10:41.625Z,52.59
2019-02-17T02:11:13.163Z,51.94
2019-02-17T02:11:44.496Z,51.71
2019-02-17T02:12:15.707Z,51.53
2019-02-17T02:12:46.974Z,51.70
2019-02-17T02:13:18.289Z,51.92
2019-02-17T02:13:49.712Z,52.19
2019-02-17T02:14:21.073Z,52.68
2019-02-17T02:14:52.429Z,52.99
2019-02-17T02:15:23.781Z,53.34
2019-02-17T02:15:55.102Z,53.87
2019-02-17T02:16:26.371Z,54.13
2019-02-17T02:16:57.797Z,54.56
2019-02-17T02:17:29.097Z,55.06
2019-02-17T02:18:01.530Z,55.49
2019-02-17T02:18:32.847Z,56.00
2019-02-17T02:19:04.179Z,56.31
2019-02-17T02:19:35.421Z,56.73
2019-02-17T02:20:10.169Z,57.22
2019-02-17T02:20:41.553Z,57.38
2019-02-17T02:21:13.171Z,57.85
2019-02-17T02:21:44.479Z,58.25
2019-02-17T02:22:15.773Z,58.59
2019-02-17T02:22:47.020Z,58.84
2019-02-17T02:23:18.363Z,59.16
2019-02-17T02:23:50.660Z,59.46
2019-02-17T02:24:21.972Z,60.07
2019-02-17T02:24:53.211Z,61.13
2019-02-17T02:25:24.477Z,61.66
2019-02-17T02:25:55.752Z,61.45
2019-02-17T02:26:26.993Z,60.90
2019-02-17T02:26:58.293Z,60.19
2019-02-17T02:27:29.598Z,59.57
2019-02-17T02:28:00.944Z,58.60
2019-02-17T02:28:32.210Z,57.63
2019-02-17T02:29:03.485Z,56.62
2019-02-17T02:29:41.022Z,55.88
2019-02-17T02:30:11.433Z,54.98
2019-02-17T02:30:42.787Z,53.92
2019-02-17T02:31:14.120Z,52.93
2019-02-17T02:31:45.407Z,52.03
2019-02-17T02:32:16.861Z,51.75
2019-02-17T02:32:48.178Z,51.89
2019-02-17T02:33:19.586Z,52.12
2019-02-17T02:33:50.856Z,52.44
2019-02-17T02:34:22.173Z,52.72
2019-02-17T02:34:53.590Z,53.00
2019-02-17T02:35:24.954Z,53.33
2019-02-17T02:35:56.301Z,53.91
2019-02-17T02:36:27.680Z,54.37
2019-02-17T02:36:58.984Z,54.80
2019-02-17T02:37:30.360Z,54.95
2019-02-17T02:38:01.690Z,55.41
2019-02-17T02:38:32.962Z,55.95
2019-02-17T02:39:05.041Z,56.32
2019-02-17T02:39:36.372Z,56.60
2019-02-17T02:40:07.699Z,57.05
2019-02-17T02:40:39.076Z,57.38
2019-02-17T02:41:10.496Z,57.64
2019-02-17T02:41:41.791Z,57.96
2019-02-17T02:42:13.191Z,58.18
2019-02-17T02:42:44.506Z,58.44
2019-02-17T02:43:15.778Z,58.67
2019-02-17T02:43:47.031Z,59.10
2019-02-17T02:44:18.386Z,59.38
2019-02-17T02:44:49.647Z,59.89
2019-02-17T02:45:20.939Z,60.91
2019-02-17T02:45:52.186Z,61.43
2019-02-17T02:46:23.594Z,61.45
2019-02-17T02:46:54.806Z,60.85
2019-02-17T02:47:26.146Z,60.12
2019-02-17T02:47:57.409Z,59.21
2019-02-17T02:48:28.765Z,58.34
2019-02-17T02:49:00.108Z,57.47
2019-02-17T02:49:31.517Z,56.40
2019-02-17T02:50:10.883Z,55.46
2019-02-17T02:50:42.386Z,55.01
2019-02-17T02:51:13.738Z,53.53
2019-02-17T02:51:45.179Z,52.48
2019-02-17T02:52:16.493Z,51.78
2019-02-17T02:52:47.825Z,51.51
2019-02-17T02:53:19.176Z,51.59
2019-02-17T02:53:50.563Z,51.77
2019-02-17T02:54:21.937Z,52.02
2019-02-17T02:54:53.314Z,52.31
2019-02-17T02:55:24.698Z,52.72
2019-02-17T02:55:55.969Z,53.21
2019-02-17T02:56:27.323Z,53.61
2019-02-17T02:56:58.608Z,54.20
2019-02-17T02:57:29.956Z,54.60
2019-02-17T02:58:01.223Z,55.09
2019-02-17T02:58:32.582Z,55.65
2019-02-17T02:59:03.903Z,56.07
2019-02-17T02:59:35.131Z,56.64
2019-02-17T03:00:10.507Z,57.24
2019-02-17T03:00:41.906Z,57.48
2019-02-17T03:01:13.480Z,57.93
2019-02-17T03:01:44.928Z,58.19
2019-02-17T03:02:16.357Z,58.83
2019-02-17T03:02:47.745Z,59.19
2019-02-17T03:03:19.191Z,59.91
2019-02-17T03:03:50.698Z,60.85
2019-02-17T03:04:22.094Z,61.40
2019-02-17T03:04:53.489Z,61.35
2019-02-17T03:05:24.798Z,61.05
2019-02-17T03:05:58.922Z,60.41
2019-02-17T03:06:32.162Z,59.53
2019-02-17T03:07:04.625Z,58.75
2019-02-17T03:07:35.898Z,57.60
2019-02-17T03:08:07.159Z,56.53
2019-02-17T03:08:38.588Z,55.51
2019-02-17T03:09:09.896Z,54.75
2019-02-17T03:09:41.208Z,53.53
2019-02-17T03:10:12.504Z,52.46
2019-02-17T03:10:43.861Z,51.88
2019-02-17T03:11:15.091Z,51.65
2019-02-17T03:11:46.369Z,51.60
2019-02-17T03:12:17.653Z,51.69
2019-02-17T03:12:48.975Z,52.00
2019-02-17T03:13:20.271Z,52.29
2019-02-17T03:13:51.613Z,52.48
2019-02-17T03:14:22.888Z,52.97
2019-02-17T03:14:54.153Z,53.35
2019-02-17T03:15:25.508Z,53.67
2019-02-17T03:15:56.797Z,54.02
2019-02-17T03:16:28.102Z,54.49
2019-02-17T03:17:00.806Z,54.87
2019-02-17T03:17:32.215Z,55.27
2019-02-17T03:18:03.500Z,55.65
2019-02-17T03:18:34.893Z,56.11
2019-02-17T03:19:06.262Z,56.53
2019-02-17T03:19:37.651Z,56.94
2019-02-17T03:20:09.132Z,57.40
2019-02-17T03:20:40.496Z,57.69
2019-02-17T03:21:11.768Z,58.01
2019-02-17T03:21:43.163Z,58.34
2019-02-17T03:22:14.399Z,58.68
2019-02-17T03:22:45.748Z,59.01
2019-02-17T03:23:17.074Z,59.30
2019-02-17T03:23:49.488Z,59.84
2019-02-17T03:24:20.735Z,60.92
2019-02-17T03:24:52.177Z,61.32
2019-02-17T03:25:23.441Z,61.19
2019-02-17T03:25:54.762Z,60.65
2019-02-17T03:26:25.959Z,59.80
2019-02-17T03:26:57.290Z,58.91
2019-02-17T03:27:28.692Z,58.03
2019-02-17T03:28:00.119Z,56.97
2019-02-17T03:28:31.414Z,55.94
2019-02-17T03:29:02.761Z,54.90
2019-02-17T03:29:34.091Z,53.65
2019-02-17T03:30:08.924Z,52.46
2019-02-17T03:30:40.348Z,51.90
2019-02-17T03:31:11.745Z,51.55
2019-02-17T03:31:43.017Z,51.37
2019-02-17T03:32:14.295Z,51.56
2019-02-17T03:32:45.563Z,51.94
2019-02-17T03:33:16.863Z,52.34
2019-02-17T03:33:48.149Z,52.76
2019-02-17T03:34:19.650Z,53.15
2019-02-17T03:34:51.028Z,53.46
2019-02-17T03:35:22.317Z,53.87
2019-02-17T03:35:53.626Z,54.29
2019-02-17T03:36:24.992Z,54.58
2019-02-17T03:36:56.320Z,55.04
2019-02-17T03:37:27.709Z,55.51
2019-02-17T03:37:59.020Z,56.02
2019-02-17T03:38:30.310Z,56.43
2019-02-17T03:39:01.682Z,56.77
2019-02-17T03:39:34.282Z,57.14
2019-02-17T03:40:07.694Z,57.50
2019-02-17T03:40:38.965Z,57.76
2019-02-17T03:41:10.263Z,58.25
2019-02-17T03:41:41.557Z,58.68
2019-02-17T03:42:12.945Z,58.99
2019-02-17T03:42:44.295Z,59.25
2019-02-17T03:43:15.523Z,59.92
2019-02-17T03:43:46.789Z,60.84
2019-02-17T03:44:18.062Z,61.28
2019-02-17T03:44:49.368Z,61.26
2019-02-17T03:45:20.601Z,60.90
2019-02-17T03:45:51.961Z,60.22
2019-02-17T03:46:23.223Z,59.27
2019-02-17T03:46:54.627Z,58.39
2019-02-17T03:47:25.933Z,57.63
2019-02-17T03:47:57.271Z,56.60
2019-02-17T03:48:28.685Z,55.64
2019-02-17T03:49:00.061Z,54.66
2019-02-17T03:49:31.411Z,53.57
2019-02-17T03:50:05.000Z,52.47
2019-02-17T03:50:36.335Z,51.91
2019-02-17T03:51:07.645Z,51.85
2019-02-17T03:51:38.915Z,51.81
2019-02-17T03:52:10.326Z,52.09
2019-02-17T03:52:41.672Z,52.34
2019-02-17T03:53:13.178Z,52.73
2019-02-17T03:53:44.432Z,53.24
2019-02-17T03:54:15.712Z,53.71
2019-02-17T03:54:46.960Z,54.11
2019-02-17T03:55:18.330Z,54.60
2019-02-17T03:55:49.578Z,55.12
2019-02-17T03:56:20.930Z,55.51
2019-02-17T03:56:52.374Z,55.99
2019-02-17T03:57:23.770Z,56.34
2019-02-17T03:57:56.058Z,56.92
2019-02-17T03:58:27.423Z,57.43
2019-02-17T03:58:58.707Z,57.75
2019-02-17T03:59:30.204Z,58.13
2019-02-17T04:00:02.458Z,58.56
2019-02-17T04:00:35.481Z,59.02
2019-02-17T04:01:06.791Z,59.49
2019-02-17T04:01:38.075Z,60.22
2019-02-17T04:02:09.436Z,61.18
2019-02-17T04:02:40.773Z,61.64
2019-02-17T04:03:12.306Z,61.58
2019-02-17T04:03:43.600Z,60.94
2019-02-17T04:04:14.951Z,60.30
2019-02-17T04:04:46.221Z,59.44
2019-02-17T04:05:17.649Z,58.58
2019-02-17T04:05:49.041Z,57.65
2019-02-17T04:06:20.421Z,56.62
2019-02-17T04:06:51.681Z,55.90
2019-02-17T04:07:22.954Z,55.05
2019-02-17T04:07:54.259Z,54.26
2019-02-17T04:08:25.585Z,53.18
2019-02-17T04:08:56.875Z,52.08
2019-02-17T04:09:28.155Z,51.47
2019-02-17T04:09:59.439Z,51.31
2019-02-17T04:10:30.750Z,51.30
2019-02-17T04:11:02.050Z,51.57
2019-02-17T04:11:33.437Z,51.78
2019-02-17T04:12:04.842Z,52.08
2019-02-17T04:12:36.195Z,52.23
2019-02-17T04:13:07.460Z,52.61
2019-02-17T04:13:38.720Z,53.03
2019-02-17T04:14:09.989Z,53.58
2019-02-17T04:14:41.272Z,54.10
2019-02-17T04:15:12.638Z,54.63
2019-02-17T04:15:43.867Z,55.14
2019-02-17T04:16:15.246Z,55.67
2019-02-17T04:16:46.494Z,56.08
2019-02-17T04:17:17.937Z,56.48
2019-02-17T04:17:49.220Z,56.89
2019-02-17T04:18:20.628Z,57.37
2019-02-17T04:18:51.849Z,57.80
2019-02-17T04:19:23.193Z,58.19
2019-02-17T04:19:54.491Z,58.57
2019-02-17T04:20:25.843Z,59.17
2019-02-17T04:20:57.078Z,59.47
2019-02-17T04:21:28.391Z,60.27
2019-02-17T04:21:59.634Z,61.26
2019-02-17T04:22:31.044Z,61.73
2019-02-17T04:23:02.320Z,61.61
2019-02-17T04:23:33.705Z,61.32
2019-02-17T04:24:04.987Z,60.79
2019-02-17T04:24:36.425Z,60.07
2019-02-17T04:25:07.675Z,59.19
2019-02-17T04:25:38.991Z,58.31
2019-02-17T04:26:10.274Z,57.26
2019-02-17T04:26:42.616Z,56.40
2019-02-17T04:27:13.962Z,55.57
2019-02-17T04:27:45.357Z,54.91
2019-02-17T04:28:16.593Z,53.99
2019-02-17T04:28:47.954Z,52.98
2019-02-17T04:29:19.257Z,52.54
2019-02-17T04:29:50.691Z,52.55
2019-02-17T04:30:29.257Z,52.64
2019-02-17T04:30:56.309Z,52.85
2019-02-17T04:31:27.709Z,53.37
2019-02-17T04:31:59.073Z,53.69
2019-02-17T04:32:30.403Z,54.12
2019-02-17T04:33:01.659Z,54.57
2019-02-17T04:33:32.921Z,55.09
2019-02-17T04:34:04.182Z,55.61
2019-02-17T04:34:35.553Z,56.10
2019-02-17T04:35:06.884Z,56.61
2019-02-17T04:35:38.216Z,57.05
2019-02-17T04:36:09.594Z,57.38
2019-02-17T04:36:40.895Z,57.83
2019-02-17T04:37:12.490Z,58.26
2019-02-17T04:37:43.773Z,58.67
2019-02-17T04:38:15.057Z,59.12
2019-02-17T04:38:46.363Z,59.44
2019-02-17T04:39:17.770Z,60.01
2019-02-17T04:39:49.139Z,60.80
2019-02-17T04:40:21.497Z,61.20
2019-02-17T04:40:52.909Z,61.12
2019-02-17T04:41:24.209Z,60.73
2019-02-17T04:41:55.482Z,59.85
2019-02-17T04:42:26.906Z,59.10
2019-02-17T04:42:58.147Z,58.28
2019-02-17T04:43:29.383Z,57.34
2019-02-17T04:44:00.630Z,56.39
2019-02-17T04:44:31.975Z,55.51
2019-02-17T04:45:05.614Z,54.66
2019-02-17T04:45:37.063Z,53.61
2019-02-17T04:46:08.319Z,52.48
2019-02-17T04:46:39.653Z,51.92
2019-02-17T04:47:10.974Z,51.74
2019-02-17T04:47:42.547Z,51.83
2019-02-17T04:48:13.784Z,52.01
2019-02-17T04:48:45.057Z,52.28
2019-02-17T04:49:16.362Z,52.65
2019-02-17T04:49:47.802Z,53.03
2019-02-17T04:50:19.115Z,53.54
2019-02-17T04:50:50.626Z,54.03
2019-02-17T04:51:21.976Z,54.42
2019-02-17T04:51:53.312Z,54.82
2019-02-17T04:52:24.544Z,55.39
2019-02-17T04:52:55.868Z,55.89
2019-02-17T04:53:27.132Z,56.48
2019-02-17T04:53:58.438Z,56.97
2019-02-17T04:54:29.698Z,57.49
2019-02-17T04:55:01.022Z,57.96
2019-02-17T04:55:32.328Z,58.46
2019-02-17T04:56:03.636Z,58.88
2019-02-17T04:56:34.965Z,59.34
2019-02-17T04:57:07.324Z,59.95
2019-02-17T04:57:38.658Z,60.94
2019-02-17T04:58:11.159Z,61.47
2019-02-17T04:58:42.512Z,61.38
2019-02-17T04:59:13.824Z,60.94
2019-02-17T04:59:45.057Z,60.38
2019-02-17T05:00:16.462Z,59.66
2019-02-17T05:00:49.931Z,58.77
2019-02-17T05:01:21.100Z,58.11
2019-02-17T05:01:52.532Z,57.22
2019-02-17T05:02:23.960Z,56.51
2019-02-17T05:02:55.338Z,55.72
2019-02-17T05:03:26.813Z,55.13
2019-02-17T05:03:58.172Z,54.42
2019-02-17T05:04:29.533Z,53.45
2019-02-17T05:05:01.010Z,52.61
2019-02-17T05:05:32.385Z,52.18
2019-02-17T05:06:03.754Z,52.10
2019-02-17T05:06:35.022Z,52.25
2019-02-17T05:07:06.406Z,52.54
2019-02-17T05:07:37.712Z,52.88
2019-02-17T05:08:09.261Z,53.39
2019-02-17T05:08:40.532Z,53.81
2019-02-17T05:09:11.854Z,54.34
2019-02-17T05:09:43.091Z,54.82
2019-02-17T05:10:14.395Z,55.32
2019-02-17T05:10:45.758Z,55.83
2019-02-17T05:11:17.146Z,56.28
2019-02-17T05:11:48.523Z,56.79
2019-02-17T05:12:19.885Z,57.32
2019-02-17T05:12:51.264Z,57.82
2019-02-17T05:13:22.547Z,58.25
2019-02-17T05:13:53.792Z,58.73
2019-02-17T05:14:25.325Z,59.19
2019-02-17T05:14:56.671Z,59.68
2019-02-17T05:15:27.966Z,60.50
2019-02-17T05:15:59.270Z,61.35
2019-02-17T05:16:30.618Z,61.86
2019-02-17T05:17:01.863Z,61.82
2019-02-17T05:17:33.154Z,61.42
2019-02-17T05:18:04.480Z,60.70
2019-02-17T05:18:35.928Z,59.93
2019-02-17T05:19:07.611Z,59.15
2019-02-17T05:19:38.998Z,58.39
2019-02-17T05:20:10.303Z,57.72
2019-02-17T05:20:41.606Z,56.93
2019-02-17T05:21:13.088Z,56.38
2019-02-17T05:21:45.431Z,55.67
2019-02-17T05:22:16.812Z,55.00
2019-02-17T05:22:48.167Z,54.39
2019-02-17T05:23:19.435Z,53.53
2019-02-17T05:23:50.693Z,52.95
2019-02-17T05:24:21.977Z,52.58
2019-02-17T05:24:53.283Z,52.61
2019-02-17T05:25:24.728Z,52.84
2019-02-17T05:25:56.002Z,53.20
2019-02-17T05:26:27.272Z,53.63
2019-02-17T05:26:58.516Z,54.20
2019-02-17T05:27:29.901Z,54.72
2019-02-17T05:28:01.289Z,55.20
2019-02-17T05:28:32.682Z,55.81
2019-02-17T05:29:03.966Z,56.39
2019-02-17T05:29:35.228Z,57.00
2019-02-17T05:30:09.713Z,57.65
2019-02-17T05:30:52.215Z,58.10
2019-02-17T05:31:14.295Z,58.78
2019-02-17T05:31:45.620Z,59.39
2019-02-17T05:32:17.033Z,60.16
2019-02-17T05:32:48.362Z,61.07
2019-02-17T05:33:19.679Z,61.57
2019-02-17T05:33:51.038Z,61.72
2019-02-17T05:34:22.424Z,61.37
2019-02-17T05:34:53.662Z,60.82
2019-02-17T05:35:25.022Z,60.03
2019-02-17T05:35:56.266Z,59.28
2019-02-17T05:36:27.687Z,58.63
2019-02-17T05:36:58.932Z,57.91
2019-02-17T05:37:30.315Z,57.22
2019-02-17T05:38:01.568Z,56.47
2019-02-17T05:38:32.870Z,55.75
2019-02-17T05:39:04.677Z,55.19
2019-02-17T05:39:36.103Z,54.60
2019-02-17T05:40:07.343Z,53.71
2019-02-17T05:40:38.675Z,53.07
2019-02-17T05:41:09.988Z,52.72
2019-02-17T05:41:41.351Z,52.74
2019-02-17T05:42:12.891Z,52.88
2019-02-17T05:42:44.174Z,53.19
2019-02-17T05:43:15.559Z,53.66
2019-02-17T05:43:46.916Z,54.16
2019-02-17T05:44:18.353Z,54.74
2019-02-17T05:44:49.716Z,55.31
2019-02-17T05:45:21.003Z,55.95
2019-02-17T05:45:52.251Z,56.51
2019-02-17T05:46:23.596Z,57.14
2019-02-17T05:46:54.853Z,57.67
2019-02-17T05:47:26.175Z,58.16
2019-02-17T05:47:57.387Z,58.75
2019-02-17T05:48:29.462Z,59.25
2019-02-17T05:49:00.840Z,59.90
2019-02-17T05:49:32.260Z,60.89
2019-02-17T05:50:04.958Z,61.44
2019-02-17T05:50:36.333Z,61.59
2019-02-17T05:51:07.619Z,61.28
2019-02-17T05:51:39.276Z,60.67
2019-02-17T05:52:10.600Z,59.89
2019-02-17T05:52:41.902Z,58.93
2019-02-17T05:53:13.274Z,58.22
2019-02-17T05:53:44.632Z,57.40
2019-02-17T05:54:15.864Z,56.62
2019-02-17T05:54:47.162Z,55.98
2019-02-17T05:55:18.425Z,55.32
2019-02-17T05:55:49.910Z,54.82
2019-02-17T05:56:21.321Z,54.02
2019-02-17T05:56:52.668Z,53.17
2019-02-17T05:57:24.026Z,52.77
2019-02-17T05:57:55.428Z,52.71
2019-02-17T05:58:26.804Z,52.89
2019-02-17T05:58:58.215Z,53.19
2019-02-17T05:59:29.665Z,53.58
2019-02-17T06:00:01.015Z,54.15
2019-02-17T06:00:32.566Z,54.65
2019-02-17T06:01:04.883Z,55.14
2019-02-17T06:01:37.123Z,55.68
2019-02-17T06:02:08.467Z,56.30
2019-02-17T06:02:39.872Z,56.92
2019-02-17T06:03:11.195Z,57.42
2019-02-17T06:03:42.496Z,58.02
2019-02-17T06:04:13.806Z,58.49
2019-02-17T06:04:45.172Z,58.93
2019-02-17T06:05:16.533Z,59.46
2019-02-17T06:05:47.918Z,60.15
2019-02-17T06:06:19.218Z,61.11
2019-02-17T06:06:50.621Z,61.60
2019-02-17T06:07:21.910Z,61.52
2019-02-17T06:07:53.251Z,61.09
2019-02-17T06:08:24.530Z,60.39
2019-02-17T06:08:55.951Z,59.67
2019-02-17T06:09:27.190Z,58.86
2019-02-17T06:09:58.533Z,58.17
2019-02-17T06:10:29.887Z,57.32
2019-02-17T06:11:01.306Z,56.62
2019-02-17T06:11:32.774Z,55.91
2019-02-17T06:12:04.196Z,55.27
2019-02-17T06:12:35.690Z,54.74
2019-02-17T06:13:06.954Z,53.94
2019-02-17T06:13:38.305Z,53.18
2019-02-17T06:14:09.905Z,52.72
2019-02-17T06:14:41.360Z,52.69
2019-02-17T06:15:12.882Z,52.86
2019-02-17T06:15:44.190Z,53.18
2019-02-17T06:16:15.513Z,53.58
2019-02-17T06:16:46.854Z,54.01
2019-02-17T06:17:18.133Z,54.54
2019-02-17T06:17:49.489Z,54.98
2019-02-17T06:18:21.718Z,55.48
2019-02-17T06:18:53.038Z,56.13
2019-02-17T06:19:24.353Z,56.68
2019-02-17T06:19:55.666Z,57.19
2019-02-17T06:20:27.056Z,57.69
2019-02-17T06:20:58.427Z,58.15
2019-02-17T06:21:29.728Z,58.70
2019-02-17T06:22:01.145Z,59.15
2019-02-17T06:22:32.425Z,59.91
2019-02-17T06:23:03.716Z,60.82
2019-02-17T06:23:34.990Z,61.38
2019-02-17T06:24:06.383Z,61.50
2019-02-17T06:24:37.743Z,61.26
2019-02-17T06:25:09.379Z,60.72
2019-02-17T06:25:40.608Z,60.09
2019-02-17T06:26:11.980Z,59.34
2019-02-17T06:26:43.335Z,58.65
2019-02-17T06:27:14.578Z,57.96
2019-02-17T06:27:46.000Z,57.22
2019-02-17T06:28:17.359Z,56.57
2019-02-17T06:28:48.612Z,55.96
2019-02-17T06:29:19.947Z,55.41
2019-02-17T06:29:51.302Z,54.86
2019-02-17T06:30:22.592Z,53.99
2019-02-17T06:30:53.923Z,53.29
2019-02-17T06:31:25.183Z,52.91
2019-02-17T06:31:56.444Z,52.86
2019-02-17T06:32:27.717Z,53.03
2019-02-17T06:32:59.069Z,53.33
2019-02-17T06:33:30.451Z,53.81
2019-02-17T06:34:01.918Z,54.24
2019-02-17T06:34:33.365Z,54.79
2019-02-17T06:35:05.820Z,55.31
2019-02-17T06:35:38.195Z,55.87
2019-02-17T06:36:09.625Z,56.52
2019-02-17T06:36:41.113Z,57.15
2019-02-17T06:37:12.506Z,57.65
2019-02-17T06:37:43.758Z,58.26
2019-02-17T06:38:15.174Z,58.81
2019-02-17T06:38:46.523Z,59.40
2019-02-17T06:39:17.920Z,60.15
2019-02-17T06:39:49.239Z,61.19
2019-02-17T06:40:20.554Z,61.62
2019-02-17T06:40:51.870Z,61.65
2019-02-17T06:41:23.289Z,61.34
2019-02-17T06:41:54.560Z,60.91
2019-02-17T06:42:25.996Z,60.34
2019-02-17T06:42:57.343Z,59.69
2019-02-17T06:43:28.667Z,59.04
2019-02-17T06:43:59.903Z,58.44
2019-02-17T06:44:31.355Z,57.85
2019-02-17T06:45:03.913Z,57.14
2019-02-17T06:45:35.214Z,56.60